sensor_id;sensor_type;location;lat;lon;timestamp;temperature;humidity
19974;DHT22;10148;47.694;9.442;2023-03-01T00:01:17;0.40;99.90
19974;DHT22;10148;47.694;9.442;2023-03-01T00:03:43;0.40;99.90
19974;DHT22;10148;47.694;9.442;2023-03-01T00:06:09;0.40;99.90
19974;DHT22;10148;47.694;9.442;2023-03-01T00:08:35;0.40;99.90
19974;DHT22;10148;47.694;9.442;2023-03-01T00:11:13;0.50;99.90
19974;DHT22;10148;47.694;9.442;2023-03-01T00:13:40;0.50;99.90
19974;DHT22;10148;47.694;9.442;2023-03-01T00:16:08;0.50;99.90
19974;DHT22;10148;47.694;9.442;2023-03-01T00:18:34;0.50;99.90
19974;DHT22;10148;47.694;9.442;2023-03-01T00:20:59;0.50;99.90
19974;DHT22;10148;47.694;9.442;2023-03-01T00:23:26;0.50;99.90
19974;DHT22;10148;47.694;9.442;2023-03-01T00:25:51;0.50;99.90
19974;DHT22;10148;47.694;9.442;2023-03-01T00:28:17;0.60;99.90
19974;DHT22;10148;47.694;9.442;2023-03-01T00:30:43;0.60;99.90
19974;DHT22;10148;47.694;9.442;2023-03-01T00:33:08;0.60;99.90
19974;DHT22;10148;47.694;9.442;2023-03-01T00:35:34;0.60;99.90
19974;DHT22;10148;47.694;9.442;2023-03-01T00:38:00;0.60;99.90
19974;DHT22;10148;47.694;9.442;2023-03-01T00:40:27;0.60;99.90
19974;DHT22;10148;47.694;9.442;2023-03-01T00:42:53;0.60;99.90
19974;DHT22;10148;47.694;9.442;2023-03-01T00:45:19;0.60;99.90
19974;DHT22;10148;47.694;9.442;2023-03-01T00:47:45;0.60;99.90
19974;DHT22;10148;47.694;9.442;2023-03-01T00:50:11;0.60;99.90
19974;DHT22;10148;47.694;9.442;2023-03-01T00:52:36;0.60;99.90
19974;DHT22;10148;47.694;9.442;2023-03-01T00:55:03;0.60;99.90
19974;DHT22;10148;47.694;9.442;2023-03-01T00:57:29;0.70;99.90
19974;DHT22;10148;47.694;9.442;2023-03-01T00:59:55;0.70;99.90
19974;DHT22;10148;47.694;9.442;2023-03-01T01:02:20;0.70;99.90
19974;DHT22;10148;47.694;9.442;2023-03-01T01:04:46;0.70;99.90
19974;DHT22;10148;47.694;9.442;2023-03-01T01:07:13;0.70;99.90
19974;DHT22;10148;47.694;9.442;2023-03-01T01:09:38;0.70;99.90
19974;DHT22;10148;47.694;9.442;2023-03-01T01:12:05;0.70;99.90
19974;DHT22;10148;47.694;9.442;2023-03-01T01:14:30;0.70;99.90
19974;DHT22;10148;47.694;9.442;2023-03-01T01:16:56;0.70;99.90
19974;DHT22;10148;47.694;9.442;2023-03-01T01:19:22;0.70;99.90
19974;DHT22;10148;47.694;9.442;2023-03-01T01:21:48;0.70;99.90
19974;DHT22;10148;47.694;9.442;2023-03-01T01:24:14;0.70;99.90
19974;DHT22;10148;47.694;9.442;2023-03-01T01:26:41;0.80;99.90
19974;DHT22;10148;47.694;9.442;2023-03-01T01:29:07;0.70;99.90
19974;DHT22;10148;47.694;9.442;2023-03-01T01:31:33;0.80;99.90
19974;DHT22;10148;47.694;9.442;2023-03-01T01:34:00;0.80;99.90
19974;DHT22;10148;47.694;9.442;2023-03-01T01:36:27;0.80;99.90
19974;DHT22;10148;47.694;9.442;2023-03-01T01:38:53;0.80;99.90
19974;DHT22;10148;47.694;9.442;2023-03-01T01:41:19;0.80;99.90
19974;DHT22;10148;47.694;9.442;2023-03-01T01:43:49;0.80;99.90
19974;DHT22;10148;47.694;9.442;2023-03-01T01:46:30;0.80;99.90
19974;DHT22;10148;47.694;9.442;2023-03-01T01:49:00;0.80;99.90
19974;DHT22;10148;47.694;9.442;2023-03-01T01:51:30;0.80;99.90
19974;DHT22;10148;47.694;9.442;2023-03-01T01:54:10;0.90;99.90
19974;DHT22;10148;47.694;9.442;2023-03-01T01:56:39;0.90;99.90
19974;DHT22;10148;47.694;9.442;2023-03-01T01:59:06;0.90;99.90
19974;DHT22;10148;47.694;9.442;2023-03-01T02:01:32;0.90;99.90
19974;DHT22;10148;47.694;9.442;2023-03-01T02:03:57;0.90;99.90
19974;DHT22;10148;47.694;9.442;2023-03-01T02:06:35;0.90;99.90
19974;DHT22;10148;47.694;9.442;2023-03-01T02:09:06;0.90;99.90
19974;DHT22;10148;47.694;9.442;2023-03-01T02:11:33;0.90;99.90
19974;DHT22;10148;47.694;9.442;2023-03-01T02:13:59;0.90;99.90
19974;DHT22;10148;47.694;9.442;2023-03-01T02:16:26;0.90;99.90
19974;DHT22;10148;47.694;9.442;2023-03-01T02:18:52;0.90;99.90
19974;DHT22;10148;47.694;9.442;2023-03-01T02:21:31;0.90;99.90
19974;DHT22;10148;47.694;9.442;2023-03-01T02:24:06;0.90;99.90
19974;DHT22;10148;47.694;9.442;2023-03-01T02:26:40;0.90;99.90
19974;DHT22;10148;47.694;9.442;2023-03-01T02:29:07;0.90;99.90
19974;DHT22;10148;47.694;9.442;2023-03-01T02:31:33;0.90;99.90
19974;DHT22;10148;47.694;9.442;2023-03-01T02:34:12;1.00;99.90
19974;DHT22;10148;47.694;9.442;2023-03-01T02:36:42;1.00;99.90
19974;DHT22;10148;47.694;9.442;2023-03-01T02:39:15;1.00;99.90
19974;DHT22;10148;47.694;9.442;2023-03-01T02:41:46;1.00;99.90
19974;DHT22;10148;47.694;9.442;2023-03-01T02:44:13;1.00;99.90
19974;DHT22;10148;47.694;9.442;2023-03-01T02:46:44;1.00;99.90
19974;DHT22;10148;47.694;9.442;2023-03-01T02:49:26;1.00;99.90
19974;DHT22;10148;47.694;9.442;2023-03-01T02:52:23;1.00;99.90
19974;DHT22;10148;47.694;9.442;2023-03-01T02:55:12;1.00;99.90
19974;DHT22;10148;47.694;9.442;2023-03-01T02:57:41;1.00;99.90
19974;DHT22;10148;47.694;9.442;2023-03-01T03:00:11;1.00;99.90
19974;DHT22;10148;47.694;9.442;2023-03-01T03:02:48;1.00;99.90
19974;DHT22;10148;47.694;9.442;2023-03-01T03:05:18;1.00;99.90
19974;DHT22;10148;47.694;9.442;2023-03-01T03:07:45;1.00;99.90
19974;DHT22;10148;47.694;9.442;2023-03-01T03:10:15;1.00;99.90
19974;DHT22;10148;47.694;9.442;2023-03-01T03:12:41;1.00;99.90
19974;DHT22;10148;47.694;9.442;2023-03-01T03:15:09;1.10;99.90
19974;DHT22;10148;47.694;9.442;2023-03-01T03:17:36;1.10;99.90
19974;DHT22;10148;47.694;9.442;2023-03-01T03:20:07;1.10;99.90
19974;DHT22;10148;47.694;9.442;2023-03-01T03:22:40;1.10;99.90
19974;DHT22;10148;47.694;9.442;2023-03-01T03:25:07;1.10;99.90
19974;DHT22;10148;47.694;9.442;2023-03-01T03:27:40;1.10;99.90
19974;DHT22;10148;47.694;9.442;2023-03-01T03:30:07;1.10;99.90
19974;DHT22;10148;47.694;9.442;2023-03-01T03:32:38;1.10;99.90
19974;DHT22;10148;47.694;9.442;2023-03-01T03:35:04;1.10;99.90
19974;DHT22;10148;47.694;9.442;2023-03-01T03:37:40;1.10;99.90
19974;DHT22;10148;47.694;9.442;2023-03-01T03:40:29;1.10;99.90
19974;DHT22;10148;47.694;9.442;2023-03-01T03:42:55;1.10;99.90
19974;DHT22;10148;47.694;9.442;2023-03-01T03:45:21;1.10;99.90
19974;DHT22;10148;47.694;9.442;2023-03-01T03:47:46;1.10;99.90
19974;DHT22;10148;47.694;9.442;2023-03-01T03:50:14;1.10;99.90
19974;DHT22;10148;47.694;9.442;2023-03-01T03:52:40;1.10;99.90
19974;DHT22;10148;47.694;9.442;2023-03-01T03:55:08;1.00;99.90
19974;DHT22;10148;47.694;9.442;2023-03-01T03:57:42;1.00;99.90
19974;DHT22;10148;47.694;9.442;2023-03-01T04:00:10;1.00;99.90
19974;DHT22;10148;47.694;9.442;2023-03-01T04:02:42;1.00;99.90
19974;DHT22;10148;47.694;9.442;2023-03-01T04:05:09;1.00;99.90
19974;DHT22;10148;47.694;9.442;2023-03-01T04:07:36;1.00;99.90
19974;DHT22;10148;47.694;9.442;2023-03-01T04:10:07;1.00;99.90
19974;DHT22;10148;47.694;9.442;2023-03-01T04:12:34;1.00;99.90
19974;DHT22;10148;47.694;9.442;2023-03-01T04:15:00;1.00;99.90
19974;DHT22;10148;47.694;9.442;2023-03-01T04:17:26;1.00;99.90
19974;DHT22;10148;47.694;9.442;2023-03-01T04:19:52;0.90;99.90
19974;DHT22;10148;47.694;9.442;2023-03-01T04:22:17;0.90;99.90
19974;DHT22;10148;47.694;9.442;2023-03-01T04:24:44;0.90;99.90
19974;DHT22;10148;47.694;9.442;2023-03-01T04:27:10;1.00;99.90
19974;DHT22;10148;47.694;9.442;2023-03-01T04:29:36;1.00;99.90
19974;DHT22;10148;47.694;9.442;2023-03-01T04:32:02;1.00;99.90
19974;DHT22;10148;47.694;9.442;2023-03-01T04:34:28;1.00;99.90
19974;DHT22;10148;47.694;9.442;2023-03-01T04:36:54;1.00;99.90
19974;DHT22;10148;47.694;9.442;2023-03-01T04:39:20;1.00;99.90
19974;DHT22;10148;47.694;9.442;2023-03-01T04:41:45;1.00;99.90
19974;DHT22;10148;47.694;9.442;2023-03-01T04:44:11;1.00;99.90
19974;DHT22;10148;47.694;9.442;2023-03-01T04:46:36;1.00;99.90
19974;DHT22;10148;47.694;9.442;2023-03-01T04:49:03;1.00;99.90
19974;DHT22;10148;47.694;9.442;2023-03-01T04:51:29;1.00;99.90
19974;DHT22;10148;47.694;9.442;2023-03-01T04:53:54;1.00;99.90
19974;DHT22;10148;47.694;9.442;2023-03-01T04:56:20;1.00;99.90
19974;DHT22;10148;47.694;9.442;2023-03-01T04:58:48;1.00;99.90
19974;DHT22;10148;47.694;9.442;2023-03-01T05:01:16;1.00;99.90
19974;DHT22;10148;47.694;9.442;2023-03-01T05:03:43;1.00;99.90
19974;DHT22;10148;47.694;9.442;2023-03-01T05:06:09;1.00;99.90
19974;DHT22;10148;47.694;9.442;2023-03-01T05:08:36;1.00;99.90
19974;DHT22;10148;47.694;9.442;2023-03-01T05:11:02;1.00;99.90
19974;DHT22;10148;47.694;9.442;2023-03-01T05:13:28;1.00;99.90
19974;DHT22;10148;47.694;9.442;2023-03-01T05:15:56;1.10;99.90
19974;DHT22;10148;47.694;9.442;2023-03-01T05:18:22;1.00;99.90
19974;DHT22;10148;47.694;9.442;2023-03-01T05:20:52;1.00;99.90
19974;DHT22;10148;47.694;9.442;2023-03-01T05:23:17;1.10;99.90
19974;DHT22;10148;47.694;9.442;2023-03-01T05:25:44;1.00;99.90
19974;DHT22;10148;47.694;9.442;2023-03-01T05:28:11;1.10;99.90
19974;DHT22;10148;47.694;9.442;2023-03-01T05:30:37;1.10;99.90
19974;DHT22;10148;47.694;9.442;2023-03-01T05:33:04;1.00;99.90
19974;DHT22;10148;47.694;9.442;2023-03-01T05:35:35;1.00;99.90
19974;DHT22;10148;47.694;9.442;2023-03-01T05:38:01;1.10;99.90
19974;DHT22;10148;47.694;9.442;2023-03-01T05:40:26;1.00;99.90
19974;DHT22;10148;47.694;9.442;2023-03-01T05:42:53;1.10;99.90
19974;DHT22;10148;47.694;9.442;2023-03-01T05:45:21;1.10;99.90
19974;DHT22;10148;47.694;9.442;2023-03-01T05:47:48;1.10;99.90
19974;DHT22;10148;47.694;9.442;2023-03-01T05:50:15;1.10;99.90
19974;DHT22;10148;47.694;9.442;2023-03-01T05:53:06;1.10;99.90
19974;DHT22;10148;47.694;9.442;2023-03-01T05:55:34;1.10;99.90
19974;DHT22;10148;47.694;9.442;2023-03-01T05:58:01;1.10;99.90
19974;DHT22;10148;47.694;9.442;2023-03-01T06:00:27;1.10;99.90
19974;DHT22;10148;47.694;9.442;2023-03-01T06:02:54;1.10;99.90
19974;DHT22;10148;47.694;9.442;2023-03-01T06:05:20;1.10;99.90
19974;DHT22;10148;47.694;9.442;2023-03-01T06:07:46;1.10;99.90
19974;DHT22;10148;47.694;9.442;2023-03-01T06:10:13;1.10;99.90
19974;DHT22;10148;47.694;9.442;2023-03-01T06:12:40;1.10;99.90
19974;DHT22;10148;47.694;9.442;2023-03-01T06:15:07;1.10;99.90
19974;DHT22;10148;47.694;9.442;2023-03-01T06:17:36;1.10;99.90
19974;DHT22;10148;47.694;9.442;2023-03-01T06:20:12;1.10;99.90
19974;DHT22;10148;47.694;9.442;2023-03-01T06:22:38;1.10;99.90
19974;DHT22;10148;47.694;9.442;2023-03-01T06:25:04;1.10;99.90
19974;DHT22;10148;47.694;9.442;2023-03-01T06:27:30;1.10;99.90
19974;DHT22;10148;47.694;9.442;2023-03-01T06:29:55;1.10;99.90
19974;DHT22;10148;47.694;9.442;2023-03-01T06:32:21;1.10;99.90
19974;DHT22;10148;47.694;9.442;2023-03-01T06:34:47;1.10;99.90
19974;DHT22;10148;47.694;9.442;2023-03-01T06:37:12;1.10;99.90
19974;DHT22;10148;47.694;9.442;2023-03-01T06:39:38;1.10;99.90
19974;DHT22;10148;47.694;9.442;2023-03-01T06:42:04;1.20;99.90
19974;DHT22;10148;47.694;9.442;2023-03-01T06:44:30;1.10;99.90
19974;DHT22;10148;47.694;9.442;2023-03-01T06:46:55;1.10;99.90
19974;DHT22;10148;47.694;9.442;2023-03-01T06:49:21;1.10;99.90
19974;DHT22;10148;47.694;9.442;2023-03-01T06:51:47;1.10;99.90
19974;DHT22;10148;47.694;9.442;2023-03-01T06:54:12;1.10;99.90
19974;DHT22;10148;47.694;9.442;2023-03-01T06:56:38;1.10;99.90
19974;DHT22;10148;47.694;9.442;2023-03-01T06:59:04;1.10;99.90
19974;DHT22;10148;47.694;9.442;2023-03-01T07:01:30;1.10;99.90
19974;DHT22;10148;47.694;9.442;2023-03-01T07:03:56;1.10;99.90
19974;DHT22;10148;47.694;9.442;2023-03-01T07:06:22;1.10;99.90
19974;DHT22;10148;47.694;9.442;2023-03-01T07:08:48;1.10;99.90
19974;DHT22;10148;47.694;9.442;2023-03-01T07:11:13;1.10;99.90
19974;DHT22;10148;47.694;9.442;2023-03-01T07:13:39;1.10;99.90
19974;DHT22;10148;47.694;9.442;2023-03-01T07:16:05;1.10;99.90
19974;DHT22;10148;47.694;9.442;2023-03-01T07:18:30;1.10;99.90
19974;DHT22;10148;47.694;9.442;2023-03-01T07:20:56;1.10;99.90
19974;DHT22;10148;47.694;9.442;2023-03-01T07:23:21;1.20;99.90
19974;DHT22;10148;47.694;9.442;2023-03-01T07:25:54;1.10;99.90
19974;DHT22;10148;47.694;9.442;2023-03-01T07:28:20;1.20;99.90
19974;DHT22;10148;47.694;9.442;2023-03-01T07:30:47;1.20;99.90
19974;DHT22;10148;47.694;9.442;2023-03-01T07:33:12;1.20;99.90
19974;DHT22;10148;47.694;9.442;2023-03-01T07:35:38;1.20;99.90
19974;DHT22;10148;47.694;9.442;2023-03-01T07:38:03;1.20;99.90
19974;DHT22;10148;47.694;9.442;2023-03-01T07:40:29;1.20;99.90
19974;DHT22;10148;47.694;9.442;2023-03-01T07:42:58;1.20;99.90
19974;DHT22;10148;47.694;9.442;2023-03-01T07:45:24;1.20;99.90
19974;DHT22;10148;47.694;9.442;2023-03-01T07:47:51;1.20;99.90
19974;DHT22;10148;47.694;9.442;2023-03-01T07:50:17;1.20;99.90
19974;DHT22;10148;47.694;9.442;2023-03-01T07:52:45;1.20;99.90
19974;DHT22;10148;47.694;9.442;2023-03-01T07:55:11;1.20;99.90
19974;DHT22;10148;47.694;9.442;2023-03-01T07:57:36;1.20;99.90
19974;DHT22;10148;47.694;9.442;2023-03-01T08:00:02;1.20;99.90
19974;DHT22;10148;47.694;9.442;2023-03-01T08:02:28;1.20;99.90
19974;DHT22;10148;47.694;9.442;2023-03-01T08:04:54;1.20;99.90
19974;DHT22;10148;47.694;9.442;2023-03-01T08:07:19;1.20;99.90
19974;DHT22;10148;47.694;9.442;2023-03-01T08:09:46;1.20;99.90
19974;DHT22;10148;47.694;9.442;2023-03-01T08:12:11;1.30;99.90
19974;DHT22;10148;47.694;9.442;2023-03-01T08:14:37;1.30;99.90
19974;DHT22;10148;47.694;9.442;2023-03-01T08:17:02;1.30;99.90
19974;DHT22;10148;47.694;9.442;2023-03-01T08:19:28;1.30;99.90
19974;DHT22;10148;47.694;9.442;2023-03-01T08:21:54;1.30;99.90
19974;DHT22;10148;47.694;9.442;2023-03-01T08:24:20;1.30;99.90
19974;DHT22;10148;47.694;9.442;2023-03-01T08:26:46;1.30;99.90
19974;DHT22;10148;47.694;9.442;2023-03-01T08:29:11;1.30;99.90
19974;DHT22;10148;47.694;9.442;2023-03-01T08:31:39;1.30;99.90
19974;DHT22;10148;47.694;9.442;2023-03-01T08:34:10;1.30;99.90
19974;DHT22;10148;47.694;9.442;2023-03-01T08:36:38;1.30;99.90
19974;DHT22;10148;47.694;9.442;2023-03-01T08:39:05;1.40;99.90
19974;DHT22;10148;47.694;9.442;2023-03-01T08:41:31;1.40;99.90
19974;DHT22;10148;47.694;9.442;2023-03-01T08:43:57;1.40;99.90
19974;DHT22;10148;47.694;9.442;2023-03-01T08:46:27;1.40;99.90
19974;DHT22;10148;47.694;9.442;2023-03-01T08:48:53;1.40;99.90
19974;DHT22;10148;47.694;9.442;2023-03-01T08:51:20;1.40;99.90
19974;DHT22;10148;47.694;9.442;2023-03-01T08:53:46;1.40;99.90
19974;DHT22;10148;47.694;9.442;2023-03-01T08:56:12;1.40;99.90
19974;DHT22;10148;47.694;9.442;2023-03-01T08:58:38;1.50;99.90
19974;DHT22;10148;47.694;9.442;2023-03-01T09:01:09;1.50;99.90
19974;DHT22;10148;47.694;9.442;2023-03-01T09:03:35;1.40;99.90
19974;DHT22;10148;47.694;9.442;2023-03-01T09:06:01;1.40;99.90
19974;DHT22;10148;47.694;9.442;2023-03-01T09:08:28;1.50;99.90
19974;DHT22;10148;47.694;9.442;2023-03-01T09:10:54;1.50;99.90
19974;DHT22;10148;47.694;9.442;2023-03-01T09:13:19;1.50;99.90
19974;DHT22;10148;47.694;9.442;2023-03-01T09:15:45;1.50;99.90
19974;DHT22;10148;47.694;9.442;2023-03-01T09:18:10;1.50;99.90
19974;DHT22;10148;47.694;9.442;2023-03-01T09:20:36;1.60;99.90
19974;DHT22;10148;47.694;9.442;2023-03-01T09:23:01;1.60;99.90
19974;DHT22;10148;47.694;9.442;2023-03-01T09:25:27;1.60;99.90
19974;DHT22;10148;47.694;9.442;2023-03-01T09:27:54;1.60;99.90
19974;DHT22;10148;47.694;9.442;2023-03-01T09:30:20;1.60;99.90
19974;DHT22;10148;47.694;9.442;2023-03-01T09:32:46;1.60;99.90
19974;DHT22;10148;47.694;9.442;2023-03-01T09:35:12;1.70;99.90
19974;DHT22;10148;47.694;9.442;2023-03-01T09:37:39;1.70;99.90
19974;DHT22;10148;47.694;9.442;2023-03-01T09:40:12;1.70;99.90
19974;DHT22;10148;47.694;9.442;2023-03-01T09:42:48;1.70;99.90
19974;DHT22;10148;47.694;9.442;2023-03-01T09:45:34;1.70;99.90
19974;DHT22;10148;47.694;9.442;2023-03-01T09:48:01;1.70;99.90
19974;DHT22;10148;47.694;9.442;2023-03-01T09:50:36;1.70;99.90
19974;DHT22;10148;47.694;9.442;2023-03-01T09:53:17;1.70;99.90
19974;DHT22;10148;47.694;9.442;2023-03-01T10:01:33;1.80;99.90
19974;DHT22;10148;47.694;9.442;2023-03-01T10:04:12;1.80;99.90
19974;DHT22;10148;47.694;9.442;2023-03-01T10:09:36;1.90;99.90
19974;DHT22;10148;47.694;9.442;2023-03-01T10:12:08;1.90;99.90
19974;DHT22;10148;47.694;9.442;2023-03-01T10:14:43;1.90;99.90
19974;DHT22;10148;47.694;9.442;2023-03-01T10:17:27;2.00;99.90
19974;DHT22;10148;47.694;9.442;2023-03-01T10:19:59;2.00;99.90
19974;DHT22;10148;47.694;9.442;2023-03-01T10:22:36;2.00;99.90
19974;DHT22;10148;47.694;9.442;2023-03-01T10:25:03;2.00;99.90
19974;DHT22;10148;47.694;9.442;2023-03-01T10:27:51;2.00;99.90
19974;DHT22;10148;47.694;9.442;2023-03-01T10:30:21;1.90;99.90
19974;DHT22;10148;47.694;9.442;2023-03-01T10:32:49;2.00;99.90
19974;DHT22;10148;47.694;9.442;2023-03-01T10:35:23;2.00;99.90
19974;DHT22;10148;47.694;9.442;2023-03-01T10:38:07;2.00;99.90
19974;DHT22;10148;47.694;9.442;2023-03-01T10:40:35;2.00;99.90
19974;DHT22;10148;47.694;9.442;2023-03-01T10:43:05;2.00;99.90
19974;DHT22;10148;47.694;9.442;2023-03-01T10:45:38;1.90;99.90
19974;DHT22;10148;47.694;9.442;2023-03-01T10:50:43;1.90;99.90
19974;DHT22;10148;47.694;9.442;2023-03-01T10:53:26;1.90;99.90
19974;DHT22;10148;47.694;9.442;2023-03-01T10:56:09;1.90;99.90
19974;DHT22;10148;47.694;9.442;2023-03-01T10:58:37;1.90;99.90
19974;DHT22;10148;47.694;9.442;2023-03-01T11:06:34;2.00;99.90
19974;DHT22;10148;47.694;9.442;2023-03-01T11:09:21;2.10;99.90
19974;DHT22;10148;47.694;9.442;2023-03-01T11:11:55;2.20;99.90
19974;DHT22;10148;47.694;9.442;2023-03-01T11:14:23;2.20;99.90
19974;DHT22;10148;47.694;9.442;2023-03-01T11:16:59;2.20;99.90
19974;DHT22;10148;47.694;9.442;2023-03-01T11:19:26;2.10;99.90
19974;DHT22;10148;47.694;9.442;2023-03-01T11:22:13;2.10;99.90
19974;DHT22;10148;47.694;9.442;2023-03-01T11:24:46;2.10;99.90
19974;DHT22;10148;47.694;9.442;2023-03-01T11:29:48;2.10;99.90
19974;DHT22;10148;47.694;9.442;2023-03-01T11:32:17;2.10;99.90
19974;DHT22;10148;47.694;9.442;2023-03-01T11:34:59;2.20;99.90
19974;DHT22;10148;47.694;9.442;2023-03-01T11:40:46;2.20;99.90
19974;DHT22;10148;47.694;9.442;2023-03-01T11:43:22;2.20;99.90
19974;DHT22;10148;47.694;9.442;2023-03-01T11:51:23;2.10;99.90
19974;DHT22;10148;47.694;9.442;2023-03-01T11:56:53;2.20;99.90
19974;DHT22;10148;47.694;9.442;2023-03-01T12:05:14;2.20;99.90
19974;DHT22;10148;47.694;9.442;2023-03-01T12:07:53;2.20;99.90
19974;DHT22;10148;47.694;9.442;2023-03-01T12:10:27;2.20;99.90
19974;DHT22;10148;47.694;9.442;2023-03-01T12:21:30;2.40;99.90
19974;DHT22;10148;47.694;9.442;2023-03-01T12:24:32;2.40;99.90
19974;DHT22;10148;47.694;9.442;2023-03-01T12:27:24;2.40;99.90
19974;DHT22;10148;47.694;9.442;2023-03-01T12:33:02;2.40;99.90
19974;DHT22;10148;47.694;9.442;2023-03-01T12:38:32;2.40;99.90
19974;DHT22;10148;47.694;9.442;2023-03-01T12:41:31;2.40;99.90
19974;DHT22;10148;47.694;9.442;2023-03-01T12:46:55;2.50;99.90
19974;DHT22;10148;47.694;9.442;2023-03-01T12:49:30;2.50;99.90
19974;DHT22;10148;47.694;9.442;2023-03-01T12:52:02;2.60;99.90
19974;DHT22;10148;47.694;9.442;2023-03-01T12:54:31;2.60;99.90
19974;DHT22;10148;47.694;9.442;2023-03-01T12:57:06;2.60;99.90
19974;DHT22;10148;47.694;9.442;2023-03-01T12:59:47;2.60;99.90
19974;DHT22;10148;47.694;9.442;2023-03-01T13:02:47;2.60;99.90
19974;DHT22;10148;47.694;9.442;2023-03-01T13:05:27;2.70;99.90
19974;DHT22;10148;47.694;9.442;2023-03-01T13:10:49;2.80;99.90
19974;DHT22;10148;47.694;9.442;2023-03-01T13:13:21;2.90;99.90
19974;DHT22;10148;47.694;9.442;2023-03-01T13:15:46;3.00;99.90
19974;DHT22;10148;47.694;9.442;2023-03-01T13:20:47;3.00;99.90
19974;DHT22;10148;47.694;9.442;2023-03-01T13:31:00;3.10;99.90
19974;DHT22;10148;47.694;9.442;2023-03-01T13:35:52;3.10;99.90
19974;DHT22;10148;47.694;9.442;2023-03-01T13:38:38;3.10;99.90
19974;DHT22;10148;47.694;9.442;2023-03-01T13:41:04;3.00;99.90
19974;DHT22;10148;47.694;9.442;2023-03-01T13:43:38;3.00;99.90
19974;DHT22;10148;47.694;9.442;2023-03-01T13:46:18;3.00;99.90
19974;DHT22;10148;47.694;9.442;2023-03-01T13:48:50;2.90;99.90
19974;DHT22;10148;47.694;9.442;2023-03-01T13:51:16;3.00;99.90
19974;DHT22;10148;47.694;9.442;2023-03-01T13:53:46;3.00;99.90
19974;DHT22;10148;47.694;9.442;2023-03-01T14:03:52;3.20;99.90
19974;DHT22;10148;47.694;9.442;2023-03-01T14:06:23;3.10;99.90
19974;DHT22;10148;47.694;9.442;2023-03-01T14:08:51;3.10;99.90
19974;DHT22;10148;47.694;9.442;2023-03-01T14:17:27;3.10;99.90
19974;DHT22;10148;47.694;9.442;2023-03-01T14:19:57;3.10;99.90
19974;DHT22;10148;47.694;9.442;2023-03-01T14:22:25;3.10;99.90
19974;DHT22;10148;47.694;9.442;2023-03-01T14:27:33;3.10;99.90
19974;DHT22;10148;47.694;9.442;2023-03-01T14:30:03;3.10;99.90
19974;DHT22;10148;47.694;9.442;2023-03-01T14:32:30;3.10;99.90
19974;DHT22;10148;47.694;9.442;2023-03-01T14:34:58;3.00;99.90
19974;DHT22;10148;47.694;9.442;2023-03-01T14:37:34;3.10;99.90
19974;DHT22;10148;47.694;9.442;2023-03-01T14:40:03;3.10;99.90
19974;DHT22;10148;47.694;9.442;2023-03-01T14:42:34;3.10;99.90
19974;DHT22;10148;47.694;9.442;2023-03-01T14:45:01;3.10;99.90
19974;DHT22;10148;47.694;9.442;2023-03-01T14:50:00;3.20;99.90
19974;DHT22;10148;47.694;9.442;2023-03-01T14:52:33;3.20;99.90
19974;DHT22;10148;47.694;9.442;2023-03-01T14:55:02;3.10;99.90
19974;DHT22;10148;47.694;9.442;2023-03-01T14:57:28;3.10;99.90
19974;DHT22;10148;47.694;9.442;2023-03-01T15:00:02;3.10;99.90
19974;DHT22;10148;47.694;9.442;2023-03-01T15:02:31;3.00;99.90
19974;DHT22;10148;47.694;9.442;2023-03-01T15:05:04;3.00;99.90
19974;DHT22;10148;47.694;9.442;2023-03-01T15:07:35;2.90;99.90
19974;DHT22;10148;47.694;9.442;2023-03-01T15:10:04;2.90;99.90
19974;DHT22;10148;47.694;9.442;2023-03-01T15:12:36;2.90;99.90
19974;DHT22;10148;47.694;9.442;2023-03-01T15:17:57;2.90;99.90
19974;DHT22;10148;47.694;9.442;2023-03-01T15:20:25;2.90;99.90
19974;DHT22;10148;47.694;9.442;2023-03-01T15:22:52;2.80;99.90
19974;DHT22;10148;47.694;9.442;2023-03-01T15:25:26;2.80;99.90
19974;DHT22;10148;47.694;9.442;2023-03-01T15:27:53;2.80;99.90
19974;DHT22;10148;47.694;9.442;2023-03-01T15:30:29;2.80;99.90
19974;DHT22;10148;47.694;9.442;2023-03-01T15:35:53;2.80;99.90
19974;DHT22;10148;47.694;9.442;2023-03-01T15:41:30;2.90;99.90
19974;DHT22;10148;47.694;9.442;2023-03-01T15:43:58;2.90;99.90
19974;DHT22;10148;47.694;9.442;2023-03-01T15:46:32;3.00;99.90
19974;DHT22;10148;47.694;9.442;2023-03-01T15:49:04;3.10;99.90
19974;DHT22;10148;47.694;9.442;2023-03-01T15:51:35;3.10;99.90
19974;DHT22;10148;47.694;9.442;2023-03-01T15:54:10;3.10;99.90
19974;DHT22;10148;47.694;9.442;2023-03-01T15:56:38;3.10;99.90
19974;DHT22;10148;47.694;9.442;2023-03-01T15:59:04;3.10;99.90
19974;DHT22;10148;47.694;9.442;2023-03-01T16:01:30;3.00;99.90
19974;DHT22;10148;47.694;9.442;2023-03-01T16:03:55;2.90;99.90
19974;DHT22;10148;47.694;9.442;2023-03-01T16:06:23;2.90;99.90
19974;DHT22;10148;47.694;9.442;2023-03-01T16:08:48;2.80;99.90
19974;DHT22;10148;47.694;9.442;2023-03-01T16:11:19;2.90;99.90
19974;DHT22;10148;47.694;9.442;2023-03-01T16:13:45;3.00;99.90
19974;DHT22;10148;47.694;9.442;2023-03-01T16:16:12;3.10;99.90
19974;DHT22;10148;47.694;9.442;2023-03-01T16:18:40;3.00;99.90
19974;DHT22;10148;47.694;9.442;2023-03-01T16:21:06;3.00;99.90
19974;DHT22;10148;47.694;9.442;2023-03-01T16:23:31;3.00;99.90
19974;DHT22;10148;47.694;9.442;2023-03-01T16:26:00;3.00;99.90
19974;DHT22;10148;47.694;9.442;2023-03-01T16:28:26;2.90;99.90
19974;DHT22;10148;47.694;9.442;2023-03-01T16:30:51;2.70;99.90
19974;DHT22;10148;47.694;9.442;2023-03-01T16:33:17;2.60;99.90
19974;DHT22;10148;47.694;9.442;2023-03-01T16:35:43;2.60;99.90
19974;DHT22;10148;47.694;9.442;2023-03-01T16:38:09;2.50;99.90
19974;DHT22;10148;47.694;9.442;2023-03-01T16:40:35;2.40;99.90
19974;DHT22;10148;47.694;9.442;2023-03-01T16:43:01;2.30;99.90
19974;DHT22;10148;47.694;9.442;2023-03-01T16:45:35;2.30;99.90
19974;DHT22;10148;47.694;9.442;2023-03-01T16:48:02;2.20;99.90
19974;DHT22;10148;47.694;9.442;2023-03-01T16:50:27;2.20;99.90
19974;DHT22;10148;47.694;9.442;2023-03-01T16:52:53;2.20;99.90
19974;DHT22;10148;47.694;9.442;2023-03-01T16:55:18;2.20;99.90
19974;DHT22;10148;47.694;9.442;2023-03-01T16:57:44;2.20;99.90
19974;DHT22;10148;47.694;9.442;2023-03-01T17:00:11;2.20;99.90
19974;DHT22;10148;47.694;9.442;2023-03-01T17:02:38;2.20;99.90
19974;DHT22;10148;47.694;9.442;2023-03-01T17:05:05;2.20;99.90
19974;DHT22;10148;47.694;9.442;2023-03-01T17:07:31;2.20;99.90
19974;DHT22;10148;47.694;9.442;2023-03-01T17:10:02;2.20;99.90
19974;DHT22;10148;47.694;9.442;2023-03-01T17:12:27;2.20;99.90
19974;DHT22;10148;47.694;9.442;2023-03-01T17:14:53;2.20;99.90
19974;DHT22;10148;47.694;9.442;2023-03-01T17:17:18;2.20;99.90
19974;DHT22;10148;47.694;9.442;2023-03-01T17:19:44;2.20;99.90
19974;DHT22;10148;47.694;9.442;2023-03-01T17:22:11;2.30;99.90
19974;DHT22;10148;47.694;9.442;2023-03-01T17:24:39;2.30;99.90
19974;DHT22;10148;47.694;9.442;2023-03-01T17:27:06;2.30;99.90
19974;DHT22;10148;47.694;9.442;2023-03-01T17:29:32;2.30;99.90
19974;DHT22;10148;47.694;9.442;2023-03-01T17:31:58;2.30;99.90
19974;DHT22;10148;47.694;9.442;2023-03-01T17:34:24;2.30;99.90